Time;durP1;ratioP1;P1;durP2;ratioP2;P2;SDS_P1;SDS_P2;PMS_P1;PMS_P2;Temp;Humidity;BMP_temperature;BMP_pressure;BME280_temperature;BME280_humidity;BME280_pressure;Samples;Min_cycle;Max_cycle;Signal;HPM_P1;HPM_P2
2024/02/14 00:00:14;;;;;;;7.53;3.73;;;3.90;99.90;;;;;;4187819;28;21202;-75
2024/02/14 00:02:16;;;;;;;8.80;3.47;;;3.90;99.90;;;;;;4185912;28;20813;-73
2024/02/14 00:04:18;;;;;;;7.07;3.33;;;3.90;99.90;;;;;;4185953;28;20435;-74
2024/02/14 00:06:20;;;;;;;6.73;3.60;;;3.90;99.90;;;;;;4184880;28;20479;-75
2024/02/14 00:08:22;;;;;;;8.53;4.07;;;3.90;99.90;;;;;;4189986;28;20457;-75
2024/02/14 00:10:24;;;;;;;7.07;3.73;;;3.90;99.90;;;;;;4188031;28;20478;-74
2024/02/14 00:12:26;;;;;;;6.83;3.50;;;3.90;99.90;;;;;;4189264;28;20568;-74
2024/02/14 00:14:27;;;;;;;5.07;3.17;;;3.90;99.90;;;;;;4190753;28;20534;-74
2024/02/14 00:16:31;;;;;;;8.73;3.63;;;3.90;99.90;;;;;;4189902;28;21020;-75
2024/02/14 00:18:33;;;;;;;7.33;3.50;;;3.90;99.90;;;;;;4185831;28;20215;-74
2024/02/14 00:20:35;;;;;;;8.40;3.67;;;3.90;99.90;;;;;;4185834;28;20548;-75
2024/02/14 00:22:37;;;;;;;6.07;3.07;;;3.90;99.90;;;;;;4189693;28;20487;-75
2024/02/14 00:24:39;;;;;;;7.20;3.40;;;3.90;99.90;;;;;;4184203;28;20481;-75
2024/02/14 00:26:41;;;;;;;9.97;3.40;;;4.00;99.90;;;;;;4185119;28;20455;-75
2024/02/14 00:28:43;;;;;;;5.37;3.13;;;4.00;99.90;;;;;;4186798;28;20450;-74
2024/02/14 00:30:46;;;;;;;8.73;3.27;;;4.00;99.90;;;;;;4185289;28;20471;-75
2024/02/14 00:32:51;;;;;;;8.47;3.80;;;4.00;99.90;;;;;;4187445;28;21148;-75
2024/02/14 00:34:52;;;;;;;7.00;3.37;;;4.00;99.90;;;;;;4184526;28;21041;-75
2024/02/14 00:36:54;;;;;;;6.93;3.70;;;4.10;99.90;;;;;;4183802;28;21022;-74
2024/02/14 00:38:56;;;;;;;10.37;3.50;;;4.00;99.90;;;;;;4188926;28;20972;-75
2024/02/14 00:40:58;;;;;;;8.20;3.27;;;4.10;99.90;;;;;;4189738;28;20885;-75
2024/02/14 00:43:00;;;;;;;6.37;3.20;;;4.10;99.90;;;;;;4183802;28;20458;-75
2024/02/14 00:45:02;;;;;;;11.27;3.87;;;4.10;99.90;;;;;;4191702;28;20881;-75
2024/02/14 00:47:05;;;;;;;7.33;3.03;;;4.00;99.90;;;;;;4184886;28;20454;-75
2024/02/14 00:49:08;;;;;;;7.23;3.30;;;4.10;99.90;;;;;;4188493;28;20539;-75
2024/02/14 00:51:09;;;;;;;7.33;3.07;;;4.10;99.90;;;;;;4188443;28;20471;-75
2024/02/14 00:53:11;;;;;;;5.33;3.10;;;4.10;99.90;;;;;;4185306;28;20450;-75
2024/02/14 00:55:12;;;;;;;8.00;3.30;;;4.10;99.90;;;;;;4183259;28;20309;-75
2024/02/14 00:57:15;;;;;;;6.33;3.23;;;4.10;99.90;;;;;;4185130;28;20906;-75
2024/02/14 00:59:17;;;;;;;6.43;2.93;;;4.10;99.90;;;;;;4185443;28;20557;-75
2024/02/14 01:01:19;;;;;;;8.90;3.47;;;4.10;99.90;;;;;;4186886;28;20481;-74
2024/02/14 01:03:21;;;;;;;6.10;3.03;;;4.10;99.90;;;;;;4186415;28;20459;-75
2024/02/14 01:05:24;;;;;;;8.23;3.30;;;4.10;99.90;;;;;;4185071;28;20494;-75
2024/02/14 01:07:26;;;;;;;7.67;3.30;;;4.00;99.90;;;;;;4185847;28;20467;-75
2024/02/14 01:09:27;;;;;;;7.70;3.07;;;4.00;99.90;;;;;;4188169;28;20509;-75
2024/02/14 01:11:29;;;;;;;5.90;2.83;;;4.00;99.90;;;;;;4186748;28;20475;-75
2024/02/14 01:13:30;;;;;;;7.37;3.60;;;4.10;99.90;;;;;;4185179;28;20242;-75
2024/02/14 01:15:33;;;;;;;8.33;3.40;;;4.10;99.90;;;;;;4184259;28;20847;-75
2024/02/14 01:17:35;;;;;;;7.73;3.70;;;4.00;99.90;;;;;;4183930;28;20214;-75
2024/02/14 01:19:40;;;;;;;6.10;3.43;;;4.00;99.90;;;;;;4189086;28;20503;-75
2024/02/14 01:21:48;;;;;;;11.63;3.80;;;4.00;99.90;;;;;;4184844;28;20488;-75
2024/02/14 01:23:49;;;;;;;7.77;3.43;;;4.00;99.90;;;;;;4185270;28;20872;-74
2024/02/14 01:25:54;;;;;;;7.53;3.47;;;4.00;99.90;;;;;;4186766;28;21017;-75
2024/02/14 01:27:57;;;;;;;5.77;3.30;;;4.00;99.90;;;;;;4187136;28;20445;-75
2024/02/14 01:29:59;;;;;;;10.63;3.87;;;4.00;99.90;;;;;;4186934;28;20552;-75
2024/02/14 01:32:00;;;;;;;9.17;3.77;;;4.00;99.90;;;;;;4185167;28;21322;-75
2024/02/14 01:34:02;;;;;;;5.40;2.90;;;4.00;99.90;;;;;;4186794;28;20458;-75
2024/02/14 01:36:05;;;;;;;5.70;2.77;;;4.00;99.90;;;;;;4182262;28;20571;-75
2024/02/14 01:38:08;;;;;;;7.73;3.20;;;4.00;99.90;;;;;;4185108;28;20466;-75
2024/02/14 01:40:11;;;;;;;10.67;3.60;;;4.00;99.90;;;;;;4184516;28;20475;-75
2024/02/14 01:42:13;;;;;;;4.30;2.80;;;4.00;99.90;;;;;;4185708;28;20482;-75
2024/02/14 01:44:15;;;;;;;6.60;2.90;;;4.10;99.90;;;;;;4185679;28;20455;-75
2024/02/14 01:46:18;;;;;;;5.93;2.63;;;4.00;99.90;;;;;;4186445;28;20462;-75
2024/02/14 01:48:20;;;;;;;6.53;3.10;;;4.00;99.90;;;;;;4191452;28;21061;-75
2024/02/14 01:50:28;;;;;;;8.13;3.20;;;4.10;99.90;;;;;;4191220;28;21047;-75
2024/02/14 01:52:30;;;;;;;6.03;2.83;;;4.00;99.90;;;;;;4182302;28;20477;-75
2024/02/14 01:54:35;;;;;;;5.27;3.03;;;4.00;99.90;;;;;;4185094;28;20836;-75
2024/02/14 01:56:37;;;;;;;4.30;2.60;;;4.00;99.90;;;;;;4183534;28;20978;-75
2024/02/14 01:58:40;;;;;;;7.87;3.10;;;4.00;99.90;;;;;;4183561;28;20439;-75
2024/02/14 02:00:43;;;;;;;6.83;3.07;;;4.00;99.90;;;;;;4186395;28;20509;-75
2024/02/14 02:02:46;;;;;;;9.13;3.33;;;4.00;99.90;;;;;;4184807;28;20512;-75
2024/02/14 02:04:51;;;;;;;7.70;2.90;;;4.00;99.90;;;;;;4184184;28;20508;-75
2024/02/14 02:06:56;;;;;;;7.23;3.63;;;4.00;99.90;;;;;;4178941;28;20503;-75
2024/02/14 02:08:58;;;;;;;5.17;2.90;;;4.00;99.90;;;;;;4183349;28;20490;-75
2024/02/14 02:11:01;;;;;;;6.77;3.10;;;4.00;99.90;;;;;;4181010;28;20503;-75
2024/02/14 02:13:03;;;;;;;7.83;2.97;;;4.00;99.90;;;;;;4182145;28;20461;-75
2024/02/14 02:15:07;;;;;;;6.60;2.90;;;4.00;99.90;;;;;;4181718;28;20564;-75
2024/02/14 02:17:09;;;;;;;6.57;3.00;;;4.00;99.90;;;;;;4183901;28;21130;-74
2024/02/14 02:19:11;;;;;;;6.27;2.93;;;4.00;99.90;;;;;;4183301;28;20949;-73
2024/02/14 02:21:13;;;;;;;6.27;3.43;;;4.00;99.90;;;;;;4184031;28;20479;-75
2024/02/14 02:23:15;;;;;;;5.97;2.80;;;4.00;99.90;;;;;;4182572;28;20553;-74
2024/02/14 02:25:17;;;;;;;6.07;3.33;;;4.10;99.90;;;;;;4191859;28;20446;-74
2024/02/14 02:27:18;;;;;;;7.73;3.33;;;4.00;99.90;;;;;;4192769;28;20498;-75
2024/02/14 02:29:22;;;;;;;6.60;3.30;;;4.00;99.90;;;;;;4191904;28;20446;-75
2024/02/14 02:31:23;;;;;;;10.27;3.70;;;4.00;99.90;;;;;;4200208;28;20486;-75
2024/02/14 02:33:26;;;;;;;5.30;3.37;;;4.00;99.90;;;;;;4207138;28;20471;-75
2024/02/14 02:35:28;;;;;;;6.83;3.17;;;4.10;99.90;;;;;;4202365;28;20303;-75
2024/02/14 02:37:29;;;;;;;6.93;3.00;;;4.10;99.90;;;;;;4197285;28;21230;-75
2024/02/14 02:39:33;;;;;;;9.27;3.23;;;4.10;99.90;;;;;;4196533;28;20450;-75
2024/02/14 02:41:35;;;;;;;6.70;3.00;;;4.10;99.90;;;;;;4184600;28;21121;-75
2024/02/14 02:43:37;;;;;;;6.43;3.47;;;4.10;99.90;;;;;;4188209;28;20948;-75
2024/02/14 02:45:39;;;;;;;5.90;2.70;;;4.10;99.90;;;;;;4190701;28;20450;-75
2024/02/14 02:47:40;;;;;;;8.50;3.10;;;4.10;99.90;;;;;;4189212;28;20460;-75
2024/02/14 02:49:44;;;;;;;5.83;2.70;;;4.10;99.90;;;;;;4187520;28;20462;-75
2024/02/14 02:51:46;;;;;;;4.30;2.60;;;4.10;99.90;;;;;;4185657;28;20327;-75
2024/02/14 02:53:47;;;;;;;5.40;2.60;;;4.10;99.90;;;;;;4191499;28;20444;-75
2024/02/14 02:55:51;;;;;;;6.50;3.20;;;4.10;99.90;;;;;;4189908;28;20484;-75
2024/02/14 02:57:53;;;;;;;3.70;2.83;;;4.10;99.90;;;;;;4192214;28;20467;-75
2024/02/14 02:59:55;;;;;;;6.13;3.07;;;4.10;99.90;;;;;;4189274;28;20456;-75
2024/02/14 03:01:57;;;;;;;7.80;2.50;;;4.10;99.90;;;;;;4187534;28;20549;-75
2024/02/14 03:03:59;;;;;;;6.00;3.03;;;4.20;99.90;;;;;;4190877;28;20435;-75
2024/02/14 03:06:03;;;;;;;7.53;2.83;;;4.10;99.90;;;;;;4185953;28;20904;-75
2024/02/14 03:08:07;;;;;;;5.97;2.93;;;4.10;99.90;;;;;;4188497;28;20434;-75
2024/02/14 03:10:09;;;;;;;7.20;2.57;;;4.10;99.90;;;;;;4187099;28;20525;-75
2024/02/14 03:12:15;;;;;;;7.50;2.90;;;4.10;99.90;;;;;;4187451;28;20513;-75
2024/02/14 03:14:17;;;;;;;5.50;2.80;;;4.10;99.90;;;;;;4190272;28;20518;-75
2024/02/14 03:16:19;;;;;;;6.63;2.70;;;4.10;99.90;;;;;;4186926;28;20479;-75
2024/02/14 03:18:21;;;;;;;4.20;2.70;;;4.10;99.90;;;;;;4188489;28;20464;-75
2024/02/14 03:20:23;;;;;;;6.20;3.10;;;4.10;99.90;;;;;;4187890;28;20565;-75
2024/02/14 03:22:25;;;;;;;6.13;3.03;;;4.10;99.90;;;;;;4183221;28;20551;-74
2024/02/14 03:24:25;;;;;;;5.47;3.00;;;4.10;99.90;;;;;;4187927;28;20442;-75
2024/02/14 03:26:27;;;;;;;8.33;3.70;;;4.10;99.90;;;;;;4183259;28;20451;-75
2024/02/14 03:28:31;;;;;;;7.63;2.90;;;4.10;99.90;;;;;;4187210;28;20290;-75
2024/02/14 03:30:33;;;;;;;5.80;3.03;;;4.20;99.90;;;;;;4181114;28;20487;-75
2024/02/14 03:32:35;;;;;;;4.43;2.30;;;4.10;99.90;;;;;;4185584;28;20470;-75
2024/02/14 03:34:37;;;;;;;5.33;2.77;;;4.20;99.90;;;;;;4187586;28;20585;-75
2024/02/14 03:36:39;;;;;;;5.93;3.17;;;4.20;99.90;;;;;;4190267;28;21042;-75
2024/02/14 03:38:41;;;;;;;7.17;3.40;;;4.20;99.90;;;;;;4187520;28;20447;-75
2024/02/14 03:40:45;;;;;;;7.43;3.13;;;4.20;99.90;;;;;;4183686;28;20453;-75
2024/02/14 03:42:47;;;;;;;11.50;2.77;;;4.20;99.90;;;;;;4187107;28;20505;-75
2024/02/14 03:44:50;;;;;;;6.47;2.90;;;4.20;99.90;;;;;;4184938;28;20500;-75
2024/02/14 03:46:52;;;;;;;6.40;2.63;;;4.20;99.90;;;;;;4186180;28;20449;-75
2024/02/14 03:48:54;;;;;;;6.60;3.17;;;4.30;99.90;;;;;;4183819;28;20476;-75
2024/02/14 03:50:57;;;;;;;5.63;2.40;;;4.30;99.90;;;;;;4186461;28;20447;-74
2024/02/14 03:52:58;;;;;;;8.13;2.87;;;4.30;99.90;;;;;;4186115;28;20486;-74
2024/02/14 03:55:01;;;;;;;4.83;2.50;;;4.30;99.90;;;;;;4188880;28;20454;-75
2024/02/14 03:57:04;;;;;;;6.83;3.07;;;4.40;99.90;;;;;;4186852;28;20517;-75
2024/02/14 03:59:07;;;;;;;4.43;2.50;;;4.40;99.90;;;;;;4182030;28;20471;-75
2024/02/14 04:01:11;;;;;;;5.73;2.40;;;4.40;99.90;;;;;;4187056;28;20956;-75
2024/02/14 04:03:13;;;;;;;7.30;2.90;;;4.40;99.90;;;;;;4186507;28;20455;-75
2024/02/14 04:05:15;;;;;;;3.63;2.17;;;4.40;99.90;;;;;;4185717;28;20459;-75
2024/02/14 04:07:18;;;;;;;4.00;2.20;;;4.50;99.90;;;;;;4184392;28;21755;-75
2024/02/14 04:09:19;;;;;;;7.00;2.67;;;4.50;99.90;;;;;;4189205;28;20448;-74
2024/02/14 04:11:23;;;;;;;4.90;2.20;;;4.50;99.90;;;;;;4192479;28;20491;-75
2024/02/14 04:13:25;;;;;;;6.43;2.27;;;4.50;99.90;;;;;;4192714;28;20808;-75
2024/02/14 04:15:26;;;;;;;4.67;2.03;;;4.60;99.90;;;;;;4187574;28;20451;-75
2024/02/14 04:17:29;;;;;;;4.37;1.90;;;4.60;99.90;;;;;;4186547;28;20478;-75
2024/02/14 04:19:31;;;;;;;4.73;2.17;;;4.60;99.90;;;;;;4188820;28;21672;-75
2024/02/14 04:21:33;;;;;;;6.47;2.33;;;4.60;99.90;;;;;;4190362;28;20497;-75
2024/02/14 04:23:35;;;;;;;4.80;2.30;;;4.60;99.90;;;;;;4189702;28;20993;-75
2024/02/14 04:25:37;;;;;;;4.33;2.03;;;4.70;99.90;;;;;;4189436;28;20452;-75
2024/02/14 04:27:39;;;;;;;3.60;1.80;;;4.70;99.90;;;;;;4183922;28;20854;-74
2024/02/14 04:29:41;;;;;;;8.53;2.30;;;4.70;99.90;;;;;;4190480;28;20486;-75
2024/02/14 04:31:43;;;;;;;4.37;2.00;;;4.80;99.90;;;;;;4185350;28;21119;-75
2024/02/14 04:33:50;;;;;;;4.13;1.83;;;4.80;99.90;;;;;;4186257;28;20487;-74
2024/02/14 04:35:52;;;;;;;3.20;1.70;;;4.80;99.90;;;;;;4188337;28;20477;-75
2024/02/14 04:37:55;;;;;;;3.27;1.47;;;5.10;99.90;;;;;;4185953;28;20451;-76
2024/02/14 04:39:57;;;;;;;8.63;1.80;;;4.90;99.90;;;;;;4187984;28;20477;-76
2024/02/14 04:41:59;;;;;;;2.53;1.60;;;4.90;99.90;;;;;;4188356;28;20576;-76
2024/02/14 04:44:00;;;;;;;5.50;1.57;;;4.90;99.90;;;;;;4189019;28;20477;-75
2024/02/14 04:46:01;;;;;;;6.47;1.60;;;4.90;99.90;;;;;;4183776;28;20958;-75
2024/02/14 04:48:04;;;;;;;6.27;1.83;;;5.00;99.90;;;;;;4189768;28;20477;-75
2024/02/14 04:50:08;;;;;;;3.80;1.70;;;5.00;99.90;;;;;;4184003;28;20455;-75
2024/02/14 04:52:10;;;;;;;4.37;1.40;;;5.10;99.90;;;;;;4186818;28;20476;-75
2024/02/14 04:54:10;;;;;;;3.07;0.93;;;5.10;99.90;;;;;;4186376;28;20458;-75
2024/02/14 04:56:12;;;;;;;4.17;1.50;;;5.10;99.90;;;;;;4185931;28;20482;-75
2024/02/14 04:58:13;;;;;;;4.10;1.97;;;5.10;99.90;;;;;;4181286;28;20206;-74
2024/02/14 05:00:16;;;;;;;2.97;1.33;;;5.20;99.90;;;;;;4194174;28;20485;-75
2024/02/14 05:02:18;;;;;;;1.90;1.23;;;5.20;99.90;;;;;;4182832;28;20789;-74
2024/02/14 05:04:20;;;;;;;3.13;1.60;;;5.20;99.90;;;;;;4190186;28;20456;-74
2024/02/14 05:06:26;;;;;;;4.87;1.93;;;5.30;99.90;;;;;;4192682;28;20433;-75
2024/02/14 05:08:29;;;;;;;3.80;1.60;;;5.30;99.90;;;;;;4190106;28;20541;-75
2024/02/14 05:10:31;;;;;;;4.80;1.33;;;5.40;99.90;;;;;;4186055;28;20456;-75
2024/02/14 05:12:33;;;;;;;3.43;1.20;;;5.40;99.90;;;;;;4188231;28;20900;-75
2024/02/14 05:14:39;;;;;;;1.97;1.27;;;5.40;99.90;;;;;;4185169;28;20448;-75
2024/02/14 05:16:41;;;;;;;3.53;1.60;;;5.40;99.90;;;;;;4184040;28;20838;-75
2024/02/14 05:18:43;;;;;;;3.30;1.20;;;5.50;99.90;;;;;;4187323;28;20475;-75
2024/02/14 05:20:45;;;;;;;3.30;1.30;;;5.40;99.90;;;;;;4183422;28;20449;-75
2024/02/14 05:22:48;;;;;;;5.93;1.53;;;5.50;99.90;;;;;;4184769;28;20551;-75
2024/02/14 05:24:50;;;;;;;6.67;1.60;;;5.50;99.90;;;;;;4184679;28;20483;-75
2024/02/14 05:26:52;;;;;;;3.17;1.30;;;5.50;99.90;;;;;;4188883;28;20447;-75
2024/02/14 05:28:54;;;;;;;2.47;1.10;;;5.50;99.90;;;;;;4188780;28;20451;-75
2024/02/14 05:30:57;;;;;;;1.93;1.00;;;5.60;99.90;;;;;;4184949;28;20480;-75
2024/02/14 05:32:59;;;;;;;3.07;1.40;;;5.60;99.90;;;;;;4187638;28;20619;-75
2024/02/14 05:35:01;;;;;;;5.13;1.20;;;5.60;99.90;;;;;;4180503;28;20464;-75
2024/02/14 05:37:05;;;;;;;4.40;1.47;;;5.60;99.90;;;;;;4184281;28;20571;-75
2024/02/14 05:39:09;;;;;;;2.77;1.20;;;5.70;99.90;;;;;;4183018;28;20453;-79
2024/02/14 05:41:11;;;;;;;3.87;1.50;;;5.70;99.90;;;;;;4184084;28;20485;-76
2024/02/14 05:43:13;;;;;;;4.03;1.30;;;5.70;99.90;;;;;;4187364;28;20465;-76
2024/02/14 05:45:15;;;;;;;3.20;1.20;;;5.80;99.90;;;;;;4187520;28;20462;-75
2024/02/14 05:47:18;;;;;;;5.23;1.13;;;5.80;99.90;;;;;;4185691;28;20490;-76
2024/02/14 05:49:21;;;;;;;1.83;1.10;;;5.80;99.90;;;;;;4189027;28;20459;-76
2024/02/14 05:51:22;;;;;;;6.47;1.70;;;5.80;99.90;;;;;;4188439;28;20460;-76
2024/02/14 05:53:24;;;;;;;2.07;1.20;;;5.90;99.90;;;;;;4184310;28;20533;-76
2024/02/14 05:55:27;;;;;;;4.23;1.40;;;5.90;99.90;;;;;;4187816;28;20241;-76
2024/02/14 05:57:29;;;;;;;3.93;1.40;;;5.90;99.90;;;;;;4185477;28;20488;-76
2024/02/14 05:59:30;;;;;;;3.10;1.30;;;5.90;99.90;;;;;;4189084;28;20476;-76
2024/02/14 06:01:32;;;;;;;2.90;1.20;;;5.90;99.90;;;;;;4183516;28;20472;-76
2024/02/14 06:03:34;;;;;;;2.93;1.10;;;6.00;99.90;;;;;;4181719;28;20490;-76
2024/02/14 06:05:36;;;;;;;3.03;1.13;;;6.00;99.90;;;;;;4186379;28;20225;-75
2024/02/14 06:07:37;;;;;;;5.37;1.30;;;6.00;99.90;;;;;;4188232;28;20477;-75
2024/02/14 06:09:39;;;;;;;3.93;1.33;;;5.90;99.90;;;;;;4183266;28;21007;-75
2024/02/14 06:11:44;;;;;;;5.23;1.30;;;5.90;99.90;;;;;;4180774;28;20304;-76
2024/02/14 06:13:44;;;;;;;2.67;1.10;;;5.90;99.90;;;;;;4181320;28;20447;-75
2024/02/14 06:15:47;;;;;;;2.00;1.07;;;5.90;99.90;;;;;;4181650;28;20478;-75
2024/02/14 06:17:49;;;;;;;4.33;1.50;;;5.80;99.90;;;;;;4181485;28;20452;-75
2024/02/14 06:19:51;;;;;;;3.27;1.30;;;5.80;99.90;;;;;;4182113;28;20459;-75
2024/02/14 06:21:53;;;;;;;3.33;1.50;;;5.80;99.90;;;;;;4188779;28;20483;-76
2024/02/14 06:23:55;;;;;;;1.70;1.20;;;5.80;99.90;;;;;;4184632;28;20452;-75
2024/02/14 06:25:57;;;;;;;1.87;1.37;;;5.90;99.90;;;;;;4178265;28;20505;-75
2024/02/14 06:27:59;;;;;;;3.00;1.10;;;5.80;99.90;;;;;;4182229;28;20850;-76
2024/02/14 06:30:01;;;;;;;5.53;1.20;;;5.90;99.90;;;;;;4188216;28;20452;-75
2024/02/14 06:32:04;;;;;;;5.03;1.20;;;5.90;99.90;;;;;;4183874;28;20476;-76
2024/02/14 06:34:07;;;;;;;2.70;1.20;;;5.90;99.90;;;;;;4190271;28;20452;-76
2024/02/14 06:36:09;;;;;;;2.20;1.30;;;5.90;99.90;;;;;;4178826;28;20469;-75
2024/02/14 06:38:10;;;;;;;2.80;1.20;;;5.90;99.90;;;;;;4184505;28;20839;-75
2024/02/14 06:40:12;;;;;;;1.90;1.07;;;6.00;99.90;;;;;;4183521;28;20882;-76
2024/02/14 06:42:14;;;;;;;3.20;1.33;;;6.00;99.90;;;;;;4183605;28;20476;-75
2024/02/14 06:44:18;;;;;;;5.43;1.40;;;6.00;99.90;;;;;;4184599;28;20452;-76
2024/02/14 06:46:20;;;;;;;3.07;1.50;;;6.10;99.90;;;;;;4187503;28;20456;-75
2024/02/14 06:48:23;;;;;;;3.20;1.30;;;6.10;99.90;;;;;;4183756;28;20472;-75
2024/02/14 06:50:26;;;;;;;3.93;1.13;;;6.10;99.90;;;;;;4184195;28;20449;-75
2024/02/14 06:52:28;;;;;;;3.00;1.20;;;6.20;99.90;;;;;;4183920;28;20480;-75
2024/02/14 06:54:29;;;;;;;3.57;1.20;;;6.20;99.90;;;;;;4186317;28;20460;-76
2024/02/14 06:56:31;;;;;;;3.40;1.20;;;6.20;99.90;;;;;;4189259;28;20504;-79
2024/02/14 06:58:33;;;;;;;2.47;1.23;;;6.20;99.90;;;;;;4180996;28;20222;-79
2024/02/14 07:00:37;;;;;;;3.60;1.30;;;6.20;99.90;;;;;;4184976;28;20480;-78
2024/02/14 07:02:43;;;;;;;6.27;1.30;;;6.20;99.90;;;;;;4192326;28;20520;-76
2024/02/14 07:04:45;;;;;;;3.37;1.20;;;6.20;99.90;;;;;;4173087;28;20460;-77
2024/02/14 07:06:46;;;;;;;3.50;1.23;;;6.20;99.90;;;;;;4174666;28;20460;-76
2024/02/14 07:08:49;;;;;;;5.43;1.43;;;6.20;99.90;;;;;;4186055;28;20260;-76
2024/02/14 07:10:51;;;;;;;3.60;1.27;;;6.20;99.90;;;;;;4183503;28;20864;-76
2024/02/14 07:12:53;;;;;;;3.37;1.10;;;6.20;99.90;;;;;;4184533;28;20460;-75
2024/02/14 07:14:55;;;;;;;2.70;1.20;;;6.20;99.90;;;;;;4186381;28;20452;-75
2024/02/14 07:16:57;;;;;;;6.17;1.40;;;6.20;99.90;;;;;;4190194;28;20226;-75
2024/02/14 07:18:59;;;;;;;4.20;1.27;;;6.20;99.90;;;;;;4188169;28;20610;-75
2024/02/14 07:21:02;;;;;;;3.90;1.23;;;6.20;99.90;;;;;;4192302;28;20967;-75
2024/02/14 07:23:04;;;;;;;2.23;1.33;;;6.20;99.90;;;;;;4187365;28;20472;-75
2024/02/14 07:25:09;;;;;;;4.10;1.37;;;6.20;99.90;;;;;;4204011;28;20440;-75
2024/02/14 07:27:13;;;;;;;2.50;1.27;;;6.20;99.90;;;;;;4212652;28;20454;-76
2024/02/14 07:29:14;;;;;;;7.60;1.53;;;6.20;99.90;;;;;;4206725;28;20208;-76
2024/02/14 07:31:16;;;;;;;6.07;1.70;;;6.30;99.90;;;;;;4199948;28;20241;-76
2024/02/14 07:33:20;;;;;;;3.00;1.33;;;6.30;99.90;;;;;;4186599;28;20448;-75
2024/02/14 07:35:22;;;;;;;3.77;1.20;;;6.30;99.90;;;;;;4192137;28;20444;-75
2024/02/14 07:37:25;;;;;;;3.50;1.47;;;6.30;99.90;;;;;;4183294;28;20527;-76
2024/02/14 07:39:26;;;;;;;2.67;1.70;;;6.30;99.90;;;;;;4191063;28;20210;-75
2024/02/14 07:41:28;;;;;;;4.40;1.90;;;6.40;99.90;;;;;;4191595;28;20515;-76
2024/02/14 07:43:30;;;;;;;2.87;1.37;;;6.40;99.90;;;;;;4184105;28;20532;-75
2024/02/14 07:45:31;;;;;;;3.10;1.57;;;6.40;99.90;;;;;;4183123;28;20705;-76
2024/02/14 07:47:33;;;;;;;2.67;1.13;;;6.40;99.90;;;;;;4186528;28;20435;-75
2024/02/14 07:49:36;;;;;;;3.47;1.33;;;6.40;99.90;;;;;;4184717;28;20215;-75
2024/02/14 07:51:38;;;;;;;5.80;1.40;;;6.50;99.90;;;;;;4185150;28;20272;-75
2024/02/14 07:53:40;;;;;;;5.10;1.73;;;6.40;99.90;;;;;;4191625;28;20202;-76
2024/02/14 07:55:41;;;;;;;2.93;1.30;;;6.50;99.90;;;;;;4185029;28;20895;-75
2024/02/14 07:57:43;;;;;;;2.93;1.50;;;6.50;99.90;;;;;;4189939;28;20220;-75
2024/02/14 07:59:44;;;;;;;3.07;1.20;;;6.50;99.90;;;;;;4184056;28;20297;-76
2024/02/14 08:01:46;;;;;;;3.03;1.23;;;6.60;99.90;;;;;;4182782;28;20261;-76
2024/02/14 08:03:48;;;;;;;4.27;1.60;;;6.60;99.90;;;;;;4189819;28;20627;-75
2024/02/14 08:05:51;;;;;;;3.47;1.50;;;6.70;99.90;;;;;;4185518;28;20218;-75
2024/02/14 08:07:53;;;;;;;5.13;1.60;;;6.70;99.90;;;;;;4183106;28;20205;-75
2024/02/14 08:09:55;;;;;;;3.93;1.30;;;6.70;99.90;;;;;;4184725;28;20289;-76
2024/02/14 08:11:57;;;;;;;4.27;1.30;;;6.80;99.90;;;;;;4184080;28;20222;-75
2024/02/14 08:13:59;;;;;;;5.13;1.80;;;6.90;99.90;;;;;;4191265;28;20626;-75
2024/02/14 08:16:01;;;;;;;2.60;1.33;;;6.90;99.90;;;;;;4186225;28;20210;-75
2024/02/14 08:18:03;;;;;;;5.00;1.67;;;7.00;99.90;;;;;;4185655;28;20215;-75
2024/02/14 08:20:07;;;;;;;3.57;1.80;;;7.10;99.90;;;;;;4190992;28;20214;-75
2024/02/14 08:22:10;;;;;;;2.20;1.30;;;7.20;99.90;;;;;;4188973;28;20226;-76
2024/02/14 08:24:12;;;;;;;2.27;1.30;;;7.20;99.90;;;;;;4193691;28;20259;-75
2024/02/14 08:26:15;;;;;;;4.57;1.30;;;7.30;99.90;;;;;;4188388;28;20239;-75
2024/02/14 08:28:18;;;;;;;3.83;1.60;;;7.40;99.90;;;;;;4188670;28;20197;-76
2024/02/14 08:30:20;;;;;;;4.67;1.30;;;7.40;99.90;;;;;;4191430;28;20725;-76
2024/02/14 08:32:22;;;;;;;4.43;1.37;;;7.40;99.90;;;;;;4184055;28;20250;-77
2024/02/14 08:34:24;;;;;;;3.07;1.40;;;7.50;99.90;;;;;;4183102;28;20246;-76
2024/02/14 08:36:26;;;;;;;4.80;1.27;;;7.60;99.90;;;;;;4185489;28;20273;-76
2024/02/14 08:38:29;;;;;;;4.13;1.40;;;7.60;99.90;;;;;;4179343;28;20240;-76
2024/02/14 08:40:31;;;;;;;4.37;1.60;;;7.60;99.90;;;;;;4185711;28;20239;-76
2024/02/14 08:42:33;;;;;;;7.77;2.93;;;7.60;99.90;;;;;;4183073;28;20259;-76
2024/02/14 08:44:35;;;;;;;9.67;3.67;;;7.60;99.90;;;;;;4184458;28;20254;-76
2024/02/14 08:46:37;;;;;;;10.90;3.50;;;7.60;99.90;;;;;;4186955;28;20546;-76
2024/02/14 08:48:45;;;;;;;7.93;2.50;;;7.60;99.90;;;;;;4187825;28;20637;-76
2024/02/14 08:50:47;;;;;;;5.07;1.90;;;7.70;99.90;;;;;;4186502;28;20203;-76
2024/02/14 08:52:49;;;;;;;4.00;1.83;;;7.80;99.90;;;;;;4183700;28;20301;-76
2024/02/14 08:54:51;;;;;;;9.03;2.20;;;7.80;99.90;;;;;;4190863;28;20220;-76
2024/02/14 08:56:55;;;;;;;6.07;1.93;;;7.90;99.90;;;;;;4183368;28;20208;-76
2024/02/14 08:58:58;;;;;;;8.77;3.17;;;7.90;99.90;;;;;;4185523;28;20205;-76
2024/02/14 09:01:00;;;;;;;4.70;1.80;;;8.00;99.90;;;;;;4187382;28;20207;-76
2024/02/14 09:03:01;;;;;;;6.33;2.10;;;8.10;99.90;;;;;;4184866;28;20210;-76
2024/02/14 09:05:05;;;;;;;3.00;1.27;;;8.10;99.90;;;;;;4185952;28;20863;-76
2024/02/14 09:07:08;;;;;;;4.20;1.53;;;8.10;99.90;;;;;;4185374;28;20197;-76
2024/02/14 09:09:11;;;;;;;2.77;1.43;;;8.20;99.90;;;;;;4186450;28;20207;-76
2024/02/14 09:11:17;;;;;;;4.80;1.87;;;8.20;99.90;;;;;;4185929;28;20228;-76
2024/02/14 09:13:19;;;;;;;3.27;1.60;;;8.30;99.90;;;;;;4188868;28;20212;-76
2024/02/14 09:15:22;;;;;;;4.93;1.50;;;8.40;99.90;;;;;;4183146;28;20231;-76
2024/02/14 09:17:28;;;;;;;5.27;1.47;;;8.40;99.90;;;;;;4188361;28;20243;-76
2024/02/14 09:19:30;;;;;;;4.47;1.30;;;8.50;99.90;;;;;;4182290;28;20234;-76
2024/02/14 09:21:33;;;;;;;4.17;1.80;;;8.50;99.90;;;;;;4186333;28;20236;-76
2024/02/14 09:23:39;;;;;;;2.60;1.30;;;8.60;99.90;;;;;;4185873;28;20208;-76
2024/02/14 09:25:41;;;;;;;3.90;1.70;;;8.70;99.90;;;;;;4184129;28;20212;-77
2024/02/14 09:27:47;;;;;;;3.47;1.30;;;8.70;99.90;;;;;;4187822;28;20262;-77
2024/02/14 09:29:49;;;;;;;3.03;1.00;;;8.80;99.90;;;;;;4184776;28;20205;-78
2024/02/14 09:31:54;;;;;;;5.33;1.20;;;8.90;99.90;;;;;;4188712;28;20251;-76
2024/02/14 09:33:57;;;;;;;2.63;1.30;;;9.00;99.90;;;;;;4183699;28;20588;-76
2024/02/14 09:35:59;;;;;;;4.07;1.50;;;9.10;99.90;;;;;;4184995;28;20205;-76
2024/02/14 09:38:02;;;;;;;2.20;1.40;;;9.10;99.90;;;;;;4192831;28;20209;-76
2024/02/14 09:40:05;;;;;;;4.63;1.20;;;9.20;99.90;;;;;;4182142;28;20661;-77
2024/02/14 09:42:11;;;;;;;3.40;1.07;;;9.20;99.90;;;;;;4187019;28;20224;-76
2024/02/14 09:44:14;;;;;;;2.87;1.33;;;9.20;99.90;;;;;;4184579;28;20219;-76
2024/02/14 09:46:16;;;;;;;3.37;1.30;;;9.20;99.90;;;;;;4186446;28;20646;-76
2024/02/14 09:48:20;;;;;;;3.53;1.50;;;9.20;99.90;;;;;;4185102;28;20205;-76
2024/02/14 09:50:22;;;;;;;10.17;1.43;;;9.30;99.90;;;;;;4187691;28;20240;-76
2024/02/14 09:52:24;;;;;;;4.37;1.40;;;9.30;99.90;;;;;;4180639;28;20316;-76
2024/02/14 09:54:27;;;;;;;3.17;1.40;;;9.40;99.90;;;;;;4186590;28;20207;-77
2024/02/14 09:56:32;;;;;;;4.23;1.43;;;9.50;99.90;;;;;;4189379;28;20700;-76
2024/02/14 09:58:34;;;;;;;3.60;1.33;;;9.50;99.90;;;;;;4185120;28;20641;-76
2024/02/14 10:00:37;;;;;;;4.33;1.20;;;9.60;99.90;;;;;;4186905;28;20254;-77
2024/02/14 10:02:39;;;;;;;3.27;1.43;;;9.70;99.90;;;;;;4180257;28;20234;-77
2024/02/14 10:04:41;;;;;;;2.90;1.10;;;9.80;99.90;;;;;;4185909;28;20896;-77
2024/02/14 10:06:43;;;;;;;6.03;1.17;;;9.80;99.90;;;;;;4187308;28;20291;-77
2024/02/14 10:08:44;;;;;;;4.03;1.30;;;9.90;99.90;;;;;;4185024;28;20198;-77
2024/02/14 10:10:46;;;;;;;4.43;1.37;;;10.00;99.90;;;;;;4183064;28;20295;-77
2024/02/14 10:12:47;;;;;;;4.77;1.37;;;10.10;99.90;;;;;;4184399;28;20260;-77
2024/02/14 10:14:49;;;;;;;4.70;1.30;;;10.10;99.90;;;;;;4189704;28;20208;-77
2024/02/14 10:16:52;;;;;;;2.63;1.20;;;10.10;99.90;;;;;;4180571;28;20202;-76
2024/02/14 10:18:54;;;;;;;4.37;1.20;;;10.00;99.90;;;;;;4179946;28;20252;-76
2024/02/14 10:20:56;;;;;;;2.80;1.30;;;10.00;99.90;;;;;;4186457;28;20237;-76
2024/02/14 10:23:03;;;;;;;3.67;1.50;;;10.10;99.90;;;;;;4184568;28;20292;-77
2024/02/14 10:25:08;;;;;;;2.67;1.10;;;10.20;99.90;;;;;;4186259;28;20236;-79
2024/02/14 10:27:12;;;;;;;4.03;1.27;;;10.10;99.90;;;;;;4178374;28;20202;-77
2024/02/14 10:29:14;;;;;;;4.77;1.30;;;10.10;99.90;;;;;;4182218;28;20244;-75
2024/02/14 10:31:16;;;;;;;5.53;1.57;;;10.00;99.90;;;;;;4181310;28;20274;-76
2024/02/14 10:33:20;;;;;;;3.40;1.40;;;10.00;99.90;;;;;;4188892;28;20205;-79
2024/02/14 10:35:22;;;;;;;3.23;1.43;;;9.90;99.90;;;;;;4185918;28;20202;-78
2024/02/14 10:37:25;;;;;;;1.87;1.07;;;9.80;99.90;;;;;;4185508;28;20236;-77
2024/02/14 10:39:27;;;;;;;2.43;1.30;;;9.70;99.90;;;;;;4181030;28;20213;-77
2024/02/14 10:41:34;;;;;;;3.53;1.67;;;9.60;99.90;;;;;;4181711;28;20721;-79
2024/02/14 10:43:37;;;;;;;2.57;1.27;;;9.50;99.90;;;;;;4189036;28;20288;-77